Time;durP1;ratioP1;P1;durP2;ratioP2;P2;SDS_P1;SDS_P2;PMS_P1;PMS_P2;Temp;Humidity;BMP_temperature;BMP_pressure;BME280_temperature;BME280_humidity;BME280_pressure;Samples;Min_cycle;Max_cycle;Signal;HPM_P1;HPM_P2
2022/02/22 00:01:05;;;;;;;61.80;6.18;;;;;;;5.90;83.57;101713.31;5058569;28;20021;-77
2022/02/22 00:03:32;;;;;;;63.85;7.47;;;;;;;5.89;83.41;101716.09;5068268;28;20033;-80
2022/02/22 00:05:58;;;;;;;57.47;5.60;;;;;;;5.86;83.48;101722.53;5053500;28;20037;-78
2022/02/22 00:08:23;;;;;;;57.10;6.30;;;;;;;5.83;83.36;101738.84;5052622;28;20028;-79
2022/02/22 00:10:49;;;;;;;52.17;6.00;;;;;;;5.81;83.87;101730.09;5069175;28;20033;-78
2022/02/22 00:13:14;;;;;;;62.20;5.97;;;;;;;5.80;83.74;101715.06;5053195;28;20037;-79
2022/02/22 00:15:39;;;;;;;60.50;7.30;;;;;;;5.77;84.04;101723.34;5065123;28;20039;-78
2022/02/22 00:18:05;;;;;;;58.28;5.35;;;;;;;5.75;84.09;101725.28;5059243;28;20033;-77
2022/02/22 00:20:30;;;;;;;53.35;5.63;;;;;;;5.72;84.38;101731.72;5080373;28;20021;-79
2022/02/22 00:22:55;;;;;;;60.63;5.75;;;;;;;5.74;84.48;101728.94;5068156;28;20120;-78
2022/02/22 00:25:21;;;;;;;47.20;5.43;;;;;;;5.70;84.71;101728.34;5060078;28;20025;-79
2022/02/22 00:27:46;;;;;;;49.53;5.63;;;;;;;5.68;85.32;101737.44;5063785;28;20086;-77
2022/02/22 00:30:12;;;;;;;44.90;5.32;;;;;;;5.67;85.06;101728.59;5056185;28;20387;-78
2022/02/22 00:32:40;;;;;;;57.92;6.13;;;;;;;5.65;85.21;101746.56;5062493;28;20496;-78
2022/02/22 00:35:08;;;;;;;46.05;5.07;;;;;;;5.62;84.87;101735.28;5074602;28;20040;-79
2022/02/22 00:37:33;;;;;;;57.15;5.88;;;;;;;5.64;84.93;101746.72;5075555;28;20033;-79
2022/02/22 00:39:59;;;;;;;55.35;5.45;;;;;;;5.62;85.09;101751.31;5059092;28;20080;-79
2022/02/22 00:42:25;;;;;;;43.25;6.05;;;;;;;5.59;85.20;101762.25;5058719;28;20071;-78
2022/02/22 00:44:51;;;;;;;59.47;4.70;;;;;;;5.59;85.27;101759.59;5060245;28;20071;-78
2022/02/22 00:47:16;;;;;;;60.97;6.32;;;;;;;5.59;85.16;101767.59;5050122;28;20428;-78
2022/02/22 00:49:42;;;;;;;58.83;4.82;;;;;;;5.57;85.46;101769.53;5067847;28;20021;-79
2022/02/22 00:52:07;;;;;;;54.42;5.13;;;;;;;5.56;85.50;101766.03;5060712;28;20043;-79
2022/02/22 00:54:32;;;;;;;66.68;4.78;;;;;;;5.53;85.66;101762.75;5073625;28;20021;-79
2022/02/22 00:56:58;;;;;;;47.47;5.70;;;;;;;5.46;85.82;101757.91;5022568;28;20079;-78
2022/02/22 00:59:23;;;;;;;53.38;5.22;;;;;;;5.46;85.93;101757.91;5069530;28;20048;-78
2022/02/22 01:01:48;;;;;;;46.30;4.63;;;;;;;5.47;85.92;101761.44;5067469;28;20039;-79
2022/02/22 01:04:14;;;;;;;52.60;5.13;;;;;;;5.43;85.66;101758.19;5053127;28;20029;-78
2022/02/22 01:06:39;;;;;;;50.00;5.32;;;;;;;5.42;85.85;101753.78;5073677;28;20069;-79
2022/02/22 01:09:06;;;;;;;47.38;5.13;;;;;;;5.42;85.99;101755.63;5056564;28;20028;-79
2022/02/22 01:11:32;;;;;;;44.00;5.97;;;;;;;5.41;85.84;101764.63;5044746;28;20057;-78
2022/02/22 01:13:57;;;;;;;47.15;4.55;;;;;;;5.41;85.88;101768.13;5072562;28;20028;-80
2022/02/22 01:16:22;;;;;;;49.20;5.85;;;;;;;5.42;85.88;101771.63;5075864;28;20043;-78
2022/02/22 01:18:48;;;;;;;49.03;4.90;;;;;;;5.42;86.11;101780.50;5079804;28;20119;-77
2022/02/22 01:21:13;;;;;;;40.95;4.75;;;;;;;5.41;86.49;101778.81;5075969;28;20020;-78
2022/02/22 01:23:38;;;;;;;54.38;6.07;;;;;;;5.41;86.51;101775.28;5066091;28;20048;-76
2022/02/22 01:26:04;;;;;;;63.30;5.78;;;;;;;5.43;86.47;101773.34;5063099;28;20076;-78
2022/02/22 01:28:29;;;;;;;47.38;4.57;;;;;;;5.39;86.76;101767.41;5045901;28;20049;-78
2022/02/22 01:30:54;;;;;;;50.40;5.68;;;;;;;5.40;86.70;101769.13;5052328;28;20026;-77
2022/02/22 01:33:20;;;;;;;37.65;4.07;;;;;;;5.44;86.39;101770.53;5037344;28;20025;-79
2022/02/22 01:35:45;;;;;;;47.88;4.47;;;;;;;5.47;86.16;101772.97;5015301;28;20035;-80
2022/02/22 01:38:10;;;;;;;39.90;5.07;;;;;;;5.43;86.15;101774.19;5037929;28;20025;-77
2022/02/22 01:40:36;;;;;;;48.67;4.57;;;;;;;5.39;86.61;101771.91;5037596;28;20380;-78
2022/02/22 01:43:01;;;;;;;52.25;5.00;;;;;;;5.36;86.93;101783.66;5056102;28;20036;-79
2022/02/22 01:45:26;;;;;;;39.63;4.72;;;;;;;5.35;86.77;101787.31;5057442;28;20558;-77
2022/02/22 01:47:52;;;;;;;48.58;4.82;;;;;;;5.33;86.76;101785.75;5039607;28;20423;-77
2022/02/22 01:50:17;;;;;;;45.17;4.18;;;;;;;5.30;86.81;101788.69;5057597;28;20028;-76
2022/02/22 01:52:43;;;;;;;48.22;4.72;;;;;;;5.28;86.98;101786.13;5041702;28;20025;-79
2022/02/22 01:55:09;;;;;;;64.88;5.68;;;;;;;5.32;86.88;101797.38;5055542;28;20043;-78
2022/02/22 01:57:34;;;;;;;47.95;4.07;;;;;;;5.33;87.06;101794.59;5044672;28;20029;-79
2022/02/22 02:00:04;;;;;;;49.78;4.22;;;;;;;5.35;86.93;101792.66;5049471;28;20082;-78
2022/02/22 02:02:29;;;;;;;43.85;4.70;;;;;;;5.35;87.16;101791.81;5064578;28;20032;-78
2022/02/22 02:04:54;;;;;;;51.80;5.25;;;;;;;5.33;87.30;101789.25;5057775;28;20028;-78
2022/02/22 02:07:20;;;;;;;57.30;4.82;;;;;;;5.34;87.37;101780.28;5070690;28;20025;-77
2022/02/22 02:09:45;;;;;;;48.17;4.85;;;;;;;5.33;87.47;101783.09;5076545;28;20020;-76
2022/02/22 02:12:10;;;;;;;47.15;4.65;;;;;;;5.35;87.17;101783.81;5046377;28;20547;-79
2022/02/22 02:14:36;;;;;;;50.30;4.45;;;;;;;5.34;87.01;101796.28;5058205;28;20557;-78
2022/02/22 02:17:01;;;;;;;58.92;5.43;;;;;;;5.38;87.01;101788.91;5063348;28;20020;-77
2022/02/22 02:19:27;;;;;;;45.30;3.90;;;;;;;5.39;87.05;101786.09;5062895;28;20067;-78
2022/02/22 02:21:56;;;;;;;57.58;4.28;;;;;;;5.40;86.75;101782.47;5049403;28;20017;-77
2022/02/22 02:24:24;;;;;;;50.30;4.57;;;;;;;5.38;86.89;101788.91;5066971;28;20027;-76
2022/02/22 02:26:51;;;;;;;48.30;5.47;;;;;;;5.38;87.00;101787.06;5061473;28;20052;-76
2022/02/22 02:29:19;;;;;;;42.80;4.30;;;;;;;5.38;87.19;101792.41;5075120;28;20021;-76
2022/02/22 02:31:45;;;;;;;32.53;4.57;;;;;;;5.39;86.88;101782.56;5074496;28;20105;-77
2022/02/22 02:34:13;;;;;;;47.80;5.47;;;;;;;5.36;87.09;101783.66;5078868;28;20028;-78
2022/02/22 02:36:39;;;;;;;52.30;4.30;;;;;;;5.35;87.38;101787.31;5069422;28;20032;-75
2022/02/22 02:39:06;;;;;;;54.67;5.07;;;;;;;5.35;87.50;101789.16;5062477;28;20286;-78
2022/02/22 02:41:31;;;;;;;48.22;5.97;;;;;;;5.34;87.69;101779.44;5066783;28;20029;-75
2022/02/22 02:44:05;;;;;;;35.42;3.40;;;;;;;5.34;87.67;101774.94;5065244;28;20086;-76
2022/02/22 02:46:31;;;;;;;53.10;5.45;;;;;;;5.35;87.84;101768.63;5073504;28;20079;-78
2022/02/22 02:48:56;;;;;;;52.35;5.97;;;;;;;5.35;87.69;101782.00;5065751;28;20025;-76
2022/02/22 02:51:22;;;;;;;49.03;5.43;;;;;;;5.35;88.17;101775.81;5074766;28;20034;-77
2022/02/22 02:53:49;;;;;;;47.25;3.97;;;;;;;5.32;88.29;101776.91;5057798;28;20025;-77
2022/02/22 02:56:14;;;;;;;49.42;4.15;;;;;;;5.28;88.47;101781.63;5061474;28;20049;-76
2022/02/22 02:58:40;;;;;;;58.95;4.43;;;;;;;5.28;88.36;101786.13;5076831;28;20085;-76
2022/02/22 03:01:05;;;;;;;37.05;3.22;;;;;;;5.28;88.63;101788.78;5064846;28;20025;-76
2022/02/22 03:03:31;;;;;;;37.42;5.28;;;;;;;5.31;88.73;101795.69;5055793;28;20044;-78
2022/02/22 03:05:56;;;;;;;49.85;5.13;;;;;;;5.31;88.80;101790.38;5076087;28;20431;-78
2022/02/22 03:08:21;;;;;;;34.00;4.10;;;;;;;5.27;88.92;101790.63;5067078;28;20352;-79
2022/02/22 03:10:46;;;;;;;52.72;4.15;;;;;;;5.28;88.98;101791.47;5057978;28;20535;-78
2022/02/22 03:13:12;;;;;;;49.15;6.20;;;;;;;5.28;89.12;101791.47;5043387;28;20033;-77
2022/02/22 03:15:37;;;;;;;53.38;4.15;;;;;;;5.25;89.62;101781.88;5043565;28;20029;-76
2022/02/22 03:18:03;;;;;;;37.22;4.00;;;;;;;5.22;89.37;101783.97;5057167;28;20155;-77
2022/02/22 03:20:28;;;;;;;43.20;3.97;;;;;;;5.19;89.23;101786.88;5054150;28;20380;-77
2022/02/22 03:22:54;;;;;;;55.13;4.00;;;;;;;5.17;89.92;101781.66;5054543;28;20104;-79
2022/02/22 03:25:19;;;;;;;40.53;4.63;;;;;;;5.18;89.86;101782.50;5053694;28;20413;-76
2022/02/22 03:27:45;;;;;;;44.35;3.85;;;;;;;5.13;89.67;101780.19;5054270;28;20107;-77
2022/02/22 03:30:10;;;;;;;39.47;3.65;;;;;;;5.10;89.96;101774.25;5055028;28;20017;-77
2022/02/22 03:32:36;;;;;;;43.63;3.80;;;;;;;5.07;90.29;101781.53;5054616;28;20025;-76
2022/02/22 03:35:01;;;;;;;38.75;4.07;;;;;;;5.04;90.68;101787.13;5055616;28;20033;-78
2022/02/22 03:37:26;;;;;;;52.15;4.93;;;;;;;5.04;90.75;101779.13;5056431;28;20115;-78
2022/02/22 03:39:52;;;;;;;56.78;5.47;;;;;;;5.03;90.85;101769.44;5035094;28;20124;-77
2022/02/22 03:42:17;;;;;;;46.65;3.88;;;;;;;5.04;91.13;101787.13;5053271;28;20086;-77
2022/02/22 03:44:42;;;;;;;48.50;6.15;;;;;;;5.03;91.27;101792.59;5053261;28;20025;-77
2022/02/22 03:47:08;;;;;;;50.08;4.85;;;;;;;5.06;91.33;101787.00;5053991;28;20033;-76
2022/02/22 03:49:33;;;;;;;54.25;4.00;;;;;;;5.06;91.46;101785.19;5052937;28;20075;-78
2022/02/22 03:51:58;;;;;;;46.83;4.57;;;;;;;5.05;91.61;101780.84;5037081;28;20029;-77
2022/02/22 03:54:24;;;;;;;48.45;4.47;;;;;;;5.05;91.82;101783.50;5057138;28;20021;-77
2022/02/22 03:56:49;;;;;;;40.25;4.70;;;;;;;5.03;91.78;101785.44;5057089;28;20032;-78
2022/02/22 03:59:14;;;;;;;39.15;4.97;;;;;;;5.03;91.64;101788.09;5058125;28;20029;-78
2022/02/22 04:01:40;;;;;;;33.63;3.78;;;;;;;5.01;91.81;101790.03;5057331;28;20506;-77
2022/02/22 04:04:05;;;;;;;63.65;4.88;;;;;;;5.04;91.89;101795.13;5056989;28;20060;-78
2022/02/22 04:06:30;;;;;;;49.88;4.57;;;;;;;5.03;91.83;101793.44;5056923;28;20052;-78
2022/02/22 04:08:56;;;;;;;40.63;4.60;;;;;;;5.05;92.11;101787.97;5056993;28;20021;-78
2022/02/22 04:11:21;;;;;;;42.13;3.45;;;;;;;5.02;91.78;101781.06;5039023;28;20046;-76
2022/02/22 04:13:47;;;;;;;42.47;4.75;;;;;;;5.04;92.05;101787.13;5057459;28;20032;-78
2022/02/22 04:16:12;;;;;;;29.00;3.10;;;;;;;5.01;91.96;101790.03;5056516;28;20334;-79
2022/02/22 04:18:37;;;;;;;33.35;3.45;;;;;;;5.03;92.33;101795.25;5056970;28;20048;-77
2022/02/22 04:21:03;;;;;;;48.92;4.85;;;;;;;5.02;92.24;101789.06;5056644;28;20029;-79
2022/02/22 04:23:28;;;;;;;28.55;3.08;;;;;;;4.99;92.24;101786.63;5038766;28;20404;-78
2022/02/22 04:25:53;;;;;;;36.28;4.13;;;;;;;4.99;92.51;101791.97;5056583;28;20029;-76
2022/02/22 04:28:19;;;;;;;37.92;4.03;;;;;;;5.00;92.52;101787.47;5057957;28;20045;-77
2022/02/22 04:30:45;;;;;;;29.63;3.05;;;;;;;5.04;93.16;101783.59;5059289;28;20044;-77
2022/02/22 04:33:10;;;;;;;39.20;4.00;;;;;;;5.04;93.32;101779.13;5058907;28;20023;-78
2022/02/22 04:35:35;;;;;;;39.10;3.92;;;;;;;5.05;93.38;101791.50;5058940;28;20138;-79
2022/02/22 04:38:01;;;;;;;40.22;3.15;;;;;;;5.07;93.60;101788.69;5041404;28;20500;-77
2022/02/22 04:40:27;;;;;;;43.25;3.58;;;;;;;5.11;94.03;101779.50;5059838;28;20472;-77
2022/02/22 04:42:52;;;;;;;34.38;3.50;;;;;;;5.14;94.44;101775.72;5061576;28;20051;-77
2022/02/22 04:45:18;;;;;;;41.17;4.45;;;;;;;5.21;94.44;101790.25;5060188;28;20086;-76
2022/02/22 04:47:44;;;;;;;29.60;3.53;;;;;;;5.27;94.91;101795.13;5056897;28;20472;-78
2022/02/22 04:50:10;;;;;;;58.15;4.13;;;;;;;5.33;95.22;101783.94;5039661;28;20021;-77
2022/02/22 04:52:35;;;;;;;39.22;3.80;;;;;;;5.38;95.25;101787.06;5056451;28;20457;-77
2022/02/22 04:55:01;;;;;;;37.60;5.00;;;;;;;5.43;95.33;101800.06;5056413;28;20090;-77
2022/02/22 04:57:27;;;;;;;24.77;3.13;;;;;;;5.48;95.60;101796.03;5040115;28;20488;-78
2022/02/22 04:59:52;;;;;;;39.00;3.85;;;;;;;5.54;95.83;101791.16;5059841;28;20117;-77
2022/02/22 05:02:17;;;;;;;26.52;3.35;;;;;;;5.60;96.03;101796.00;5056255;28;20024;-77
2022/02/22 05:04:43;;;;;;;31.95;3.47;;;;;;;5.61;96.24;101787.00;5057622;28;20036;-77
2022/02/22 05:07:08;;;;;;;36.25;3.50;;;;;;;5.63;96.58;101777.03;5059168;28;20032;-77
2022/02/22 05:09:33;;;;;;;42.95;5.07;;;;;;;5.62;97.10;101773.53;5056193;28;20032;-76
2022/02/22 05:11:59;;;;;;;30.13;3.03;;;;;;;5.62;96.90;101775.34;5038307;28;20065;-76
2022/02/22 05:14:24;;;;;;;32.47;3.55;;;;;;;5.58;97.24;101772.09;5056048;28;20115;-78
2022/02/22 05:16:49;;;;;;;45.55;4.32;;;;;;;5.53;97.23;101773.44;5038963;28;20028;-75
2022/02/22 05:19:17;;;;;;;39.17;5.03;;;;;;;5.50;97.44;101763.84;5072085;28;20041;-77
2022/02/22 05:21:43;;;;;;;35.97;4.47;;;;;;;5.47;97.67;101772.97;5076754;28;20032;-77
2022/02/22 05:24:09;;;;;;;37.35;4.55;;;;;;;5.45;97.61;101768.72;5078184;28;20478;-77
2022/02/22 05:26:35;;;;;;;34.28;4.60;;;;;;;5.45;98.18;101766.91;5077196;28;20029;-78
2022/02/22 05:29:01;;;;;;;43.38;4.63;;;;;;;5.45;98.42;101745.56;5059492;28;20028;-77
2022/02/22 05:31:26;;;;;;;43.75;4.30;;;;;;;5.43;98.67;101750.16;5081325;28;20020;-77
2022/02/22 05:33:51;;;;;;;54.50;6.75;;;;;;;5.43;98.75;101752.84;5078384;28;20413;-77
2022/02/22 05:36:20;;;;;;;48.38;5.88;;;;;;;5.40;98.71;101763.78;5076941;28;20021;-77
2022/02/22 05:38:46;;;;;;;42.33;5.82;;;;;;;5.40;99.17;101757.59;5065177;28;20029;-78
2022/02/22 05:41:13;;;;;;;31.77;4.30;;;;;;;5.38;99.22;101763.03;5056939;28;20475;-77
2022/02/22 05:43:39;;;;;;;64.85;7.43;;;;;;;5.37;99.40;101761.38;5058195;28;20025;-76
2022/02/22 05:46:04;;;;;;;52.20;5.18;;;;;;;5.36;99.17;101753.47;5058723;28;20026;-77
2022/02/22 05:48:30;;;;;;;51.88;5.55;;;;;;;5.33;99.34;101756.41;5076465;28;20020;-76
2022/02/22 05:50:55;;;;;;;47.05;5.53;;;;;;;5.33;99.16;101745.72;5070919;28;20032;-77
2022/02/22 05:53:20;;;;;;;76.35;6.15;;;;;;;5.28;99.36;101743.41;5037578;28;20029;-77
2022/02/22 05:55:47;;;;;;;83.80;7.18;;;;;;;5.26;99.10;101743.53;5054400;28;20025;-77
2022/02/22 05:58:12;;;;;;;49.63;6.15;;;;;;;5.24;99.10;101742.81;5057724;28;20117;-75
2022/02/22 06:00:37;;;;;;;57.25;6.40;;;;;;;5.21;98.87;101726.19;5076155;28;20024;-77
2022/02/22 06:03:03;;;;;;;56.08;5.18;;;;;;;5.22;98.76;101738.59;5076454;28;20054;-76
2022/02/22 06:05:28;;;;;;;64.95;6.35;;;;;;;5.19;98.26;101736.19;5075319;28;20024;-75
2022/02/22 06:07:53;;;;;;;57.70;5.70;;;;;;;5.18;98.30;101731.78;5075203;28;20029;-77
2022/02/22 06:10:19;;;;;;;59.65;5.82;;;;;;;5.17;97.96;101735.44;5075242;28;20074;-77
2022/02/22 06:12:48;;;;;;;55.95;5.88;;;;;;;5.17;97.47;101736.28;5075753;28;20070;-75
2022/02/22 06:15:13;;;;;;;53.55;6.78;;;;;;;5.17;96.94;101724.78;5082447;28;20028;-77
2022/02/22 06:17:40;;;;;;;49.83;5.15;;;;;;;5.18;96.79;101729.13;5088601;28;20571;-78
2022/02/22 06:20:06;;;;;;;48.28;5.28;;;;;;;5.19;96.83;101730.84;5083650;28;20040;-78
2022/02/22 06:22:32;;;;;;;72.78;6.75;;;;;;;5.22;96.42;101722.56;5080061;28;20029;-77
2022/02/22 06:24:57;;;;;;;49.17;6.20;;;;;;;5.27;96.03;101715.88;5082481;28;20039;-78
2022/02/22 06:27:22;;;;;;;55.92;6.63;;;;;;;5.28;95.89;101709.56;5081887;28;20391;-77
2022/02/22 06:29:48;;;;;;;50.63;6.57;;;;;;;5.32;95.48;101712.84;5083515;28;20340;-77
2022/02/22 06:32:13;;;;;;;49.50;7.60;;;;;;;5.37;95.29;101709.78;5080929;28;20037;-77
2022/02/22 06:34:38;;;;;;;61.78;6.40;;;;;;;5.41;95.25;101700.56;5084296;28;20044;-78
2022/02/22 06:37:04;;;;;;;49.75;5.50;;;;;;;5.42;95.21;101713.75;5084310;28;20033;-78
2022/02/22 06:39:29;;;;;;;49.88;6.68;;;;;;;5.48;95.07;101717.75;5071191;28;20033;-76
2022/02/22 06:41:54;;;;;;;59.22;6.88;;;;;;;5.53;95.02;101722.69;5044620;28;20035;-77
2022/02/22 06:44:20;;;;;;;60.28;6.07;;;;;;;5.57;94.62;101702.78;5064974;28;20039;-76
2022/02/22 06:46:46;;;;;;;62.53;6.65;;;;;;;5.61;94.12;101709.53;5070867;28;20029;-76
2022/02/22 06:49:11;;;;;;;58.88;6.00;;;;;;;5.66;93.90;101702.00;5073512;28;20085;-77
2022/02/22 06:51:37;;;;;;;60.45;6.88;;;;;;;5.68;93.96;101700.91;5070623;28;20071;-78
2022/02/22 06:54:02;;;;;;;50.88;5.95;;;;;;;5.72;93.72;101707.69;5067699;28;20059;-77
2022/02/22 06:56:27;;;;;;;44.72;5.65;;;;;;;5.78;93.56;101702.81;5063781;28;20068;-77
2022/02/22 06:58:53;;;;;;;60.97;7.20;;;;;;;5.80;93.25;101707.03;5056762;28;20056;-77
2022/02/22 07:01:18;;;;;;;54.42;5.45;;;;;;;5.85;93.02;101702.16;5039240;28;20033;-78
2022/02/22 07:03:44;;;;;;;51.20;6.15;;;;;;;5.87;92.84;101697.53;5041346;28;20045;-78
2022/02/22 07:06:09;;;;;;;49.75;4.97;;;;;;;5.90;92.67;101696.44;5039608;28;20040;-76
2022/02/22 07:08:35;;;;;;;55.55;6.35;;;;;;;5.90;92.53;101691.94;5061505;28;20087;-76
2022/02/22 07:11:00;;;;;;;56.13;6.82;;;;;;;5.91;92.54;101685.59;5053122;28;20021;-75
2022/02/22 07:13:25;;;;;;;54.53;6.95;;;;;;;5.92;92.57;101676.63;5023198;28;20120;-78
2022/02/22 07:15:51;;;;;;;45.38;5.28;;;;;;;5.90;92.70;101681.25;5064341;28;20037;-77
2022/02/22 07:18:16;;;;;;;45.25;4.45;;;;;;;5.88;92.66;101675.19;5068049;28;20112;-77
2022/02/22 07:20:42;;;;;;;45.88;5.15;;;;;;;5.88;92.48;101667.16;5082425;28;20025;-77
2022/02/22 07:23:07;;;;;;;61.58;6.93;;;;;;;5.87;92.55;101667.28;5081714;28;20036;-75
2022/02/22 07:25:32;;;;;;;48.20;4.85;;;;;;;5.88;92.44;101656.47;5063482;28;20028;-76
2022/02/22 07:27:59;;;;;;;60.60;5.55;;;;;;;5.90;92.53;101664.38;5081785;28;20048;-77
2022/02/22 07:30:26;;;;;;;47.35;5.70;;;;;;;5.89;92.58;101658.16;5085473;28;20021;-76
2022/02/22 07:32:54;;;;;;;43.53;4.47;;;;;;;5.90;92.53;101654.53;5085168;28;20052;-78
2022/02/22 07:35:20;;;;;;;32.80;4.93;;;;;;;5.92;92.50;101652.59;5065847;28;20105;-78
2022/02/22 07:37:46;;;;;;;35.17;4.97;;;;;;;5.96;92.21;101661.19;5087237;28;20059;-77
2022/02/22 07:40:14;;;;;;;41.60;4.93;;;;;;;5.98;92.32;101656.56;5089239;28;20028;-78
2022/02/22 07:42:40;;;;;;;47.97;5.15;;;;;;;6.00;92.25;101659.09;5071834;28;20052;-78
2022/02/22 07:45:06;;;;;;;48.75;6.00;;;;;;;6.01;92.10;101650.13;5092791;28;20032;-77
2022/02/22 07:47:32;;;;;;;49.80;5.00;;;;;;;5.99;92.12;101650.25;5093368;28;20021;-77
2022/02/22 07:49:58;;;;;;;58.63;5.57;;;;;;;6.01;92.33;101655.47;5074119;28;20094;-78
2022/02/22 07:52:25;;;;;;;50.63;5.88;;;;;;;6.06;92.34;101651.41;5087740;28;20097;-77
2022/02/22 07:54:50;;;;;;;43.08;6.07;;;;;;;6.06;92.51;101647.91;5094232;28;20040;-78
2022/02/22 07:57:16;;;;;;;45.55;5.20;;;;;;;6.02;92.43;101643.78;5095843;28;20040;-78
2022/02/22 07:59:41;;;;;;;62.00;5.93;;;;;;;6.02;92.68;101636.63;5095219;28;20019;-77
2022/02/22 08:02:07;;;;;;;53.92;6.25;;;;;;;6.06;92.50;101642.56;5074046;28;20025;-77
2022/02/22 08:04:32;;;;;;;52.63;6.30;;;;;;;6.13;92.51;101639.22;5090035;28;20052;-77
2022/02/22 08:06:57;;;;;;;47.92;5.13;;;;;;;6.17;92.47;101636.28;5077289;28;20028;-76
2022/02/22 08:09:24;;;;;;;50.85;5.70;;;;;;;6.14;92.52;101632.03;5093892;28;20032;-78
2022/02/22 08:11:49;;;;;;;43.17;5.82;;;;;;;6.18;92.68;101620.09;5092817;28;20036;-78
2022/02/22 08:14:15;;;;;;;50.05;5.93;;;;;;;6.17;92.65;101618.41;5074724;28;20016;-77
2022/02/22 08:16:40;;;;;;;50.50;6.13;;;;;;;6.21;92.77;101609.13;5075543;28;20020;-76
2022/02/22 08:19:07;;;;;;;50.40;5.72;;;;;;;6.25;92.60;101610.56;5093200;28;20045;-77
2022/02/22 08:21:32;;;;;;;48.45;6.13;;;;;;;6.31;92.69;101619.88;5089804;28;20025;-77
2022/02/22 08:23:58;;;;;;;49.67;5.43;;;;;;;6.25;92.69;101610.56;5088576;28;20025;-76
2022/02/22 08:26:23;;;;;;;51.35;6.35;;;;;;;6.21;92.61;101603.78;5092119;28;20032;-78
2022/02/22 08:28:48;;;;;;;37.88;5.32;;;;;;;6.24;92.70;101595.50;5090062;28;20044;-77
2022/02/22 08:31:14;;;;;;;49.42;5.07;;;;;;;6.31;92.75;101587.78;5091415;28;20036;-78
2022/02/22 08:33:39;;;;;;;51.67;5.68;;;;;;;6.34;92.35;101588.34;5090541;28;20021;-77
2022/02/22 08:36:05;;;;;;;54.80;5.85;;;;;;;6.46;92.08;101580.25;5088852;28;20108;-77
2022/02/22 08:38:30;;;;;;;45.40;6.82;;;;;;;6.44;91.23;101587.53;5090604;28;20028;-79
2022/02/22 08:40:56;;;;;;;56.80;6.97;;;;;;;6.52;90.88;101579.69;5090475;28;20025;-76
2022/02/22 08:43:21;;;;;;;44.40;5.60;;;;;;;6.59;90.98;101560.28;5087420;28;20032;-75
2022/02/22 08:45:46;;;;;;;45.40;5.50;;;;;;;6.66;90.67;101554.34;5088514;28;20088;-76
2022/02/22 08:48:13;;;;;;;42.10;5.20;;;;;;;6.76;90.23;101556.06;5068457;28;20542;-76
2022/02/22 08:50:39;;;;;;;49.75;5.68;;;;;;;6.64;89.63;101551.84;5089256;28;20107;-76
2022/02/22 08:53:04;;;;;;;31.23;5.07;;;;;;;6.86;89.27;101547.22;5086113;28;20028;-78
2022/02/22 08:55:29;;;;;;;44.90;5.10;;;;;;;6.96;88.16;101553.41;5087198;28;20059;-76
2022/02/22 08:57:56;;;;;;;38.50;5.18;;;;;;;6.71;87.96;101552.13;5089147;28;20040;-78
2022/02/22 09:00:23;;;;;;;35.72;5.72;;;;;;;6.73;87.82;101552.81;5088840;28;20032;-77
2022/02/22 09:02:53;;;;;;;43.83;5.07;;;;;;;6.77;87.86;101541.72;5089790;28;20028;-75
2022/02/22 09:05:18;;;;;;;37.20;6.03;;;;;;;6.72;87.11;101527.91;5088998;28;20059;-76
2022/02/22 09:07:45;;;;;;;37.97;5.15;;;;;;;6.69;87.02;101543.38;5089730;28;20029;-78
2022/02/22 09:10:12;;;;;;;50.47;5.70;;;;;;;6.61;86.89;101536.06;5091558;28;20080;-78
2022/02/22 09:12:38;;;;;;;39.78;5.40;;;;;;;6.67;86.85;101524.81;5087682;28;20115;-76
2022/02/22 09:15:03;;;;;;;39.70;6.07;;;;;;;6.72;86.58;101525.22;5086445;28;20028;-75
2022/02/22 09:17:29;;;;;;;45.58;5.40;;;;;;;6.79;86.14;101506.78;5089062;28;20071;-74
2022/02/22 09:19:55;;;;;;;38.25;5.97;;;;;;;6.79;84.95;101513.00;5086924;28;20058;-77
2022/02/22 09:22:20;;;;;;;49.08;5.70;;;;;;;6.82;85.34;101523.41;5070762;28;20024;-77
2022/02/22 09:24:46;;;;;;;39.35;4.90;;;;;;;7.06;84.97;101524.81;5086067;28;20028;-78
2022/02/22 09:27:11;;;;;;;46.15;6.55;;;;;;;7.15;84.10;101537.31;5087301;28;20071;-77
2022/02/22 09:29:37;;;;;;;34.88;5.60;;;;;;;7.15;83.73;101537.31;5085133;28;20036;-77
2022/02/22 09:32:02;;;;;;;48.25;6.38;;;;;;;7.12;84.01;101529.59;5087380;28;20036;-76
2022/02/22 09:34:28;;;;;;;37.78;6.78;;;;;;;6.98;83.84;101530.03;5070024;28;20122;-76
2022/02/22 09:36:53;;;;;;;39.80;6.03;;;;;;;6.90;84.60;101525.38;5087750;28;20088;-77
2022/02/22 09:39:18;;;;;;;48.53;6.15;;;;;;;6.87;84.85;101508.75;5085638;28;20059;-76
2022/02/22 09:41:44;;;;;;;42.67;6.43;;;;;;;6.88;84.92;101510.47;5086504;28;20021;-75
2022/02/22 09:44:09;;;;;;;55.67;7.18;;;;;;;6.89;85.54;101518.31;5088608;28;20386;-77
2022/02/22 09:46:35;;;;;;;54.17;6.30;;;;;;;6.93;85.54;101529.63;5067973;28;20439;-75
2022/02/22 09:49:00;;;;;;;44.35;6.82;;;;;;;6.93;85.79;101525.09;5085945;28;20040;-75
2022/02/22 09:51:26;;;;;;;44.08;6.55;;;;;;;6.90;86.24;101524.50;5088393;28;20024;-76
2022/02/22 09:53:51;;;;;;;43.75;5.85;;;;;;;6.89;86.62;101528.19;5086349;28;20043;-75
2022/02/22 09:56:23;;;;;;;50.53;6.07;;;;;;;6.84;87.31;101506.34;5088586;28;20031;-76
2022/02/22 09:58:48;;;;;;;46.25;7.10;;;;;;;6.79;89.08;101504.97;5090966;28;20024;-77
2022/02/22 10:01:14;;;;;;;48.53;6.00;;;;;;;6.77;91.05;101493.56;5090601;28;20008;-77
2022/02/22 10:03:39;;;;;;;54.28;6.97;;;;;;;6.70;92.32;101505.81;5088026;28;20024;-76
2022/02/22 10:06:04;;;;;;;41.58;6.32;;;;;;;6.53;93.73;101518.03;5087697;28;20041;-76
2022/02/22 10:08:32;;;;;;;62.42;8.07;;;;;;;6.52;95.39;101499.44;5089366;28;20024;-75
2022/02/22 10:11:05;;;;;;;65.45;8.60;;;;;;;6.45;96.90;101496.50;5088809;28;20028;-76
2022/02/22 10:13:31;;;;;;;47.22;7.45;;;;;;;6.43;97.83;101478.91;5089682;28;20021;-76
2022/02/22 10:15:58;;;;;;;66.40;8.40;;;;;;;6.42;98.88;101459.31;5074328;28;20084;-75
2022/02/22 10:18:25;;;;;;;58.88;7.93;;;;;;;6.42;99.70;101445.13;5085513;28;20039;-76
2022/02/22 10:20:50;;;;;;;56.85;7.85;;;;;;;6.44;100.00;101453.84;5093465;28;20050;-76
2022/02/22 10:23:26;;;;;;;63.85;9.25;;;;;;;6.42;100.00;101450.47;5089035;28;20036;-77
2022/02/22 10:25:55;;;;;;;52.63;7.93;;;;;;;6.48;100.00;101452.59;5090149;28;20028;-76
2022/02/22 10:28:20;;;;;;;54.35;8.18;;;;;;;6.52;100.00;101443.28;5091651;28;20048;-76
2022/02/22 10:30:50;;;;;;;58.45;9.20;;;;;;;6.56;100.00;101439.38;5092653;28;20107;-76
2022/02/22 10:33:25;;;;;;;45.70;8.70;;;;;;;6.62;100.00;101440.63;5096356;28;20081;-76
2022/02/22 10:36:04;;;;;;;47.17;8.13;;;;;;;6.69;100.00;101458.66;5093108;28;20056;-75
2022/02/22 10:38:31;;;;;;;52.05;8.52;;;;;;;6.74;100.00;101450.16;5092940;28;20062;-77
2022/02/22 10:41:15;;;;;;;39.88;8.73;;;;;;;6.76;100.00;101464.25;5093703;28;20024;-76
2022/02/22 10:43:41;;;;;;;50.83;9.88;;;;;;;6.81;100.00;101457.50;5092642;28;20035;-76
2022/02/22 10:46:11;;;;;;;52.65;8.98;;;;;;;6.85;100.00;101447.38;5091412;28;20099;-75
2022/02/22 10:48:38;;;;;;;61.97;10.10;;;;;;;6.90;100.00;101439.75;5095121;28;20029;-76
2022/02/22 10:51:08;;;;;;;55.85;9.73;;;;;;;6.94;100.00;101429.59;5076273;28;20039;-77
2022/02/22 10:53:39;;;;;;;52.63;10.15;;;;;;;7.02;100.00;101427.03;5094116;28;20020;-76
2022/02/22 10:56:10;;;;;;;49.50;10.55;;;;;;;7.07;100.00;101435.50;5095007;28;20052;-76
2022/02/22 10:58:45;;;;;;;56.30;9.85;;;;;;;7.11;100.00;101431.53;5094650;28;20039;-75
2022/02/22 11:01:14;;;;;;;52.03;9.07;;;;;;;7.18;100.00;101442.50;5093136;28;20161;-77
2022/02/22 11:03:41;;;;;;;57.95;9.20;;;;;;;7.18;100.00;101448.69;5093887;28;20052;-78
2022/02/22 11:06:07;;;;;;;47.83;9.85;;;;;;;7.24;100.00;101442.78;5094620;28;20023;-75
2022/02/22 11:08:34;;;;;;;56.05;10.60;;;;;;;7.30;100.00;101445.88;5094563;28;20012;-76
2022/02/22 11:11:11;;;;;;;52.58;10.68;;;;;;;7.37;100.00;101442.47;5095539;28;20020;-76
2022/02/22 11:13:36;;;;;;;55.88;10.05;;;;;;;7.45;100.00;101436.34;5076644;28;20036;-76
2022/02/22 11:16:17;;;;;;;53.08;9.82;;;;;;;7.53;100.00;101409.69;5074988;28;20039;-76
2022/02/22 11:18:48;;;;;;;56.45;10.70;;;;;;;7.60;100.00;101416.13;5095392;28;20029;-75